Terminal Aerodrome Forecast
Issued by NWS Atlanta, GA

Home | Current Version | Previous Version | Text Only | Print | Product List | Glossary On
Versions: 1 2 3 4 5 6 7 8 9 10 11 12 13 14 15 16 17 18 19
000
FTUS42 KFFC 291735
TAFMCN
TAF
KMCN 291735Z 2918/3018 08004KT P6SM -RA BKN014 BKN020 OVC060
     FM292300 08005KT P6SM VCSH OVC030
     FM300300 11003KT P6SM OVC040
     FM300700 00000KT 5SM BR OVC025
     FM301300 06005KT 6SM SHRA BKN015=

USA.gov is the U.S. government's official web portal to all federal, state and local government web resources and services.